Time;durP1;ratioP1;P1;durP2;ratioP2;P2;SDS_P1;SDS_P2;PMS_P1;PMS_P2;Temp;Humidity;BMP_temperature;BMP_pressure;BME280_temperature;BME280_humidity;BME280_pressure;Samples;Min_cycle;Max_cycle;Signal;HPM_P1;HPM_P2
2023/07/11 00:01:16;;;;;;;;;1.25;1.25;;;;;;;;5035466;28;45385;-75
2023/07/11 00:03:41;;;;;;;;;3.25;3.25;;;;;;;;5035979;28;45800;-76
2023/07/11 00:06:09;;;;;;;;;1.75;1.75;;;;;;;;5034745;28;45478;-76
2023/07/11 00:08:36;;;;;;;;;1.00;1.00;;;;;;;;5035658;28;45544;-75
2023/07/11 00:11:02;;;;;;;;;0.00;0.00;;;;;;;;5035955;28;45401;-75
2023/07/11 00:13:27;;;;;;;;;1.75;1.75;;;;;;;;5036027;28;45506;-73
2023/07/11 00:15:57;;;;;;;;;0.50;0.50;;;;;;;;5017807;28;45474;-76
2023/07/11 00:18:22;;;;;;;;;1.00;1.00;;;;;;;;5035681;28;46328;-75
2023/07/11 00:20:48;;;;;;;;;1.25;1.25;;;;;;;;5036015;28;45526;-74
2023/07/11 00:23:13;;;;;;;;;1.75;1.75;;;;;;;;5035930;28;45480;-76
2023/07/11 00:25:38;;;;;;;;;0.75;0.75;;;;;;;;5036201;28;45505;-75
2023/07/11 00:28:03;;;;;;;;;0.25;0.25;;;;;;;;5034009;28;48774;-76
2023/07/11 00:30:29;;;;;;;;;0.50;0.50;;;;;;;;5035854;28;45394;-75
2023/07/11 00:32:54;;;;;;;;;2.00;2.00;;;;;;;;5035617;28;45292;-75
2023/07/11 00:35:19;;;;;;;;;2.50;1.75;;;;;;;;5017541;28;45358;-76
2023/07/11 00:37:45;;;;;;;;;0.25;0.25;;;;;;;;5036886;28;46272;-75
2023/07/11 00:40:10;;;;;;;;;1.50;1.50;;;;;;;;5034775;28;45481;-74
2023/07/11 00:42:36;;;;;;;;;2.00;1.00;;;;;;;;5035332;28;45644;-73
2023/07/11 00:45:03;;;;;;;;;0.75;0.75;;;;;;;;5035605;28;45494;-74
2023/07/11 00:47:29;;;;;;;;;1.50;1.50;;;;;;;;5034792;28;45756;-74
2023/07/11 00:49:56;;;;;;;;;3.00;3.00;;;;;;;;5034769;28;45383;-74
2023/07/11 00:52:22;;;;;;;;;2.50;2.50;;;;;;;;5033936;28;45525;-73
2023/07/11 00:54:50;;;;;;;;;2.00;1.00;;;;;;;;5034784;28;45427;-73
2023/07/11 00:57:16;;;;;;;;;1.00;1.00;;;;;;;;5034782;28;45501;-73
2023/07/11 00:59:42;;;;;;;;;3.00;3.00;;;;;;;;5034726;28;45443;-74
2023/07/11 01:02:10;;;;;;;;;2.50;2.50;;;;;;;;5034477;28;45494;-75
2023/07/11 01:04:36;;;;;;;;;6.25;1.50;;;;;;;;5034895;28;45426;-74
2023/07/11 01:07:02;;;;;;;;;1.00;1.00;;;;;;;;5034290;28;45437;-74
2023/07/11 01:09:28;;;;;;;;;2.00;2.00;;;;;;;;5034897;28;45412;-73
2023/07/11 01:11:58;;;;;;;;;2.75;2.00;;;;;;;;5034879;28;45436;-74
2023/07/11 01:14:24;;;;;;;;;2.00;2.00;;;;;;;;5035059;28;45319;-74
2023/07/11 01:16:49;;;;;;;;;2.00;2.00;;;;;;;;5034799;28;45801;-74
2023/07/11 01:19:14;;;;;;;;;3.75;2.00;;;;;;;;5032987;28;45558;-73
2023/07/11 01:21:40;;;;;;;;;2.00;1.50;;;;;;;;5034669;28;45729;-72
2023/07/11 01:24:05;;;;;;;;;4.00;2.25;;;;;;;;5034611;28;45434;-73
2023/07/11 01:26:30;;;;;;;;;2.00;2.00;;;;;;;;5034413;28;45766;-75
2023/07/11 01:28:56;;;;;;;;;3.00;1.75;;;;;;;;5034556;28;45546;-74
2023/07/11 01:31:21;;;;;;;;;1.25;1.00;;;;;;;;5034542;28;45399;-75
2023/07/11 01:33:46;;;;;;;;;2.00;2.00;;;;;;;;5034462;28;45442;-74
2023/07/11 01:36:11;;;;;;;;;2.00;2.00;;;;;;;;5035231;28;45473;-74
2023/07/11 01:38:37;;;;;;;;;3.00;2.00;;;;;;;;5035996;28;45377;-73
2023/07/11 01:41:02;;;;;;;;;2.50;2.50;;;;;;;;5035158;28;45586;-73
2023/07/11 01:43:27;;;;;;;;;1.75;1.75;;;;;;;;5034280;28;45417;-74
2023/07/11 01:45:53;;;;;;;;;2.00;2.00;;;;;;;;5035764;28;46312;-73
2023/07/11 01:48:18;;;;;;;;;1.25;1.25;;;;;;;;5035746;28;45363;-74
2023/07/11 01:50:43;;;;;;;;;2.00;1.00;;;;;;;;5035822;28;45599;-74
2023/07/11 01:53:08;;;;;;;;;2.00;2.00;;;;;;;;5035504;28;45377;-74
2023/07/11 01:55:34;;;;;;;;;1.25;1.00;;;;;;;;5035580;28;45411;-74
2023/07/11 01:57:59;;;;;;;;;2.00;2.00;;;;;;;;5035502;28;45232;-74
2023/07/11 02:00:24;;;;;;;;;3.00;3.00;;;;;;;;5035884;28;45273;-73
2023/07/11 02:02:49;;;;;;;;;2.50;1.50;;;;;;;;5035240;28;45281;-73
2023/07/11 02:05:15;;;;;;;;;2.00;2.00;;;;;;;;5035291;28;45438;-73
2023/07/11 02:07:41;;;;;;;;;1.75;1.75;;;;;;;;5034869;28;45418;-74
2023/07/11 02:10:07;;;;;;;;;1.00;1.00;;;;;;;;5035415;28;45556;-74
2023/07/11 02:12:32;;;;;;;;;1.00;1.00;;;;;;;;5034785;28;45570;-74
2023/07/11 02:14:57;;;;;;;;;2.00;1.00;;;;;;;;5033963;28;47383;-74
2023/07/11 02:17:22;;;;;;;;;2.00;2.00;;;;;;;;5034134;28;45332;-74
2023/07/11 02:19:47;;;;;;;;;1.50;1.50;;;;;;;;5035277;28;45411;-74
2023/07/11 02:22:13;;;;;;;;;2.00;2.00;;;;;;;;5035727;28;45450;-74
2023/07/11 02:24:39;;;;;;;;;1.00;1.00;;;;;;;;5035155;28;45326;-75
2023/07/11 02:27:04;;;;;;;;;3.00;3.00;;;;;;;;5035281;28;45454;-74
2023/07/11 02:29:29;;;;;;;;;3.75;3.00;;;;;;;;5035250;28;45419;-74
2023/07/11 02:31:55;;;;;;;;;1.00;1.00;;;;;;;;5034149;28;45593;-73
2023/07/11 02:34:20;;;;;;;;;1.50;1.50;;;;;;;;5033963;28;47619;-74
2023/07/11 02:36:45;;;;;;;;;2.00;2.00;;;;;;;;5034038;28;46013;-74
2023/07/11 02:39:11;;;;;;;;;2.00;1.50;;;;;;;;5035707;28;45272;-74
2023/07/11 02:41:37;;;;;;;;;1.50;1.00;;;;;;;;5035649;28;45372;-73
2023/07/11 02:44:02;;;;;;;;;1.50;1.50;;;;;;;;5036171;28;45426;-74
2023/07/11 02:46:27;;;;;;;;;2.00;2.00;;;;;;;;5037090;28;45347;-74
2023/07/11 02:48:53;;;;;;;;;4.00;1.75;;;;;;;;5035340;28;45374;-74
2023/07/11 02:51:19;;;;;;;;;1.25;1.25;;;;;;;;5035074;28;45573;-74
2023/07/11 02:53:44;;;;;;;;;1.00;1.00;;;;;;;;5032364;28;46754;-74
2023/07/11 02:56:09;;;;;;;;;1.00;1.00;;;;;;;;5034314;28;45321;-74
2023/07/11 02:58:34;;;;;;;;;2.00;2.00;;;;;;;;5034970;28;45323;-74
2023/07/11 03:01:01;;;;;;;;;2.75;2.75;;;;;;;;5034938;28;45199;-73
2023/07/11 03:03:26;;;;;;;;;2.00;2.00;;;;;;;;5033035;28;48632;-74
2023/07/11 03:05:52;;;;;;;;;2.00;2.00;;;;;;;;5034419;28;45427;-74
2023/07/11 03:08:18;;;;;;;;;3.00;3.00;;;;;;;;5034334;28;45399;-74
2023/07/11 03:10:43;;;;;;;;;2.00;2.00;;;;;;;;5034648;28;45308;-74
2023/07/11 03:13:09;;;;;;;;;2.50;2.00;;;;;;;;5034256;28;46099;-74
2023/07/11 03:15:34;;;;;;;;;2.50;1.50;;;;;;;;5034772;28;45450;-74
2023/07/11 03:18:00;;;;;;;;;3.00;1.50;;;;;;;;5035265;28;45387;-74
2023/07/11 03:20:25;;;;;;;;;2.00;1.00;;;;;;;;5036762;28;45418;-74
2023/07/11 03:22:50;;;;;;;;;2.25;1.25;;;;;;;;5038030;28;45669;-74
2023/07/11 03:25:15;;;;;;;;;3.25;1.50;;;;;;;;5037605;28;45398;-73
2023/07/11 03:27:41;;;;;;;;;2.00;2.00;;;;;;;;5037995;28;45416;-74
2023/07/11 03:30:06;;;;;;;;;2.50;2.00;;;;;;;;5036698;28;45553;-73
2023/07/11 03:32:31;;;;;;;;;1.50;1.50;;;;;;;;5037681;28;46483;-73
2023/07/11 03:34:57;;;;;;;;;1.00;1.00;;;;;;;;5036376;28;45482;-73
2023/07/11 03:37:22;;;;;;;;;2.75;1.50;;;;;;;;5039150;28;45390;-73
2023/07/11 03:39:47;;;;;;;;;2.00;2.00;;;;;;;;5037624;28;45381;-72
2023/07/11 03:42:12;;;;;;;;;0.00;0.00;;;;;;;;5037637;28;47191;-73
2023/07/11 03:44:38;;;;;;;;;2.50;2.50;;;;;;;;5037531;28;45343;-75
2023/07/11 03:47:03;;;;;;;;;1.00;1.00;;;;;;;;5037599;28;45443;-74
2023/07/11 03:49:28;;;;;;;;;3.00;3.00;;;;;;;;5037678;28;45460;-74
2023/07/11 03:51:53;;;;;;;;;3.25;3.25;;;;;;;;5037304;28;45292;-75
2023/07/11 03:54:18;;;;;;;;;3.50;2.00;;;;;;;;5037421;28;45447;-75
2023/07/11 03:56:44;;;;;;;;;2.00;2.00;;;;;;;;5037512;28;45419;-74
2023/07/11 03:59:09;;;;;;;;;2.00;2.00;;;;;;;;5037810;28;45389;-74
2023/07/11 04:01:35;;;;;;;;;4.50;2.25;;;;;;;;5035858;28;47628;-74
2023/07/11 04:04:00;;;;;;;;;3.75;3.75;;;;;;;;5036021;28;45434;-74
2023/07/11 04:06:25;;;;;;;;;1.50;1.50;;;;;;;;5037665;28;45383;-74
2023/07/11 04:08:50;;;;;;;;;2.00;2.00;;;;;;;;5036655;28;45412;-74
2023/07/11 04:11:16;;;;;;;;;2.00;2.00;;;;;;;;5036903;28;46906;-74
2023/07/11 04:13:42;;;;;;;;;3.00;2.00;;;;;;;;5037030;28;45295;-74
2023/07/11 04:16:07;;;;;;;;;2.00;2.00;;;;;;;;5037173;28;45444;-74
2023/07/11 04:18:32;;;;;;;;;4.50;2.00;;;;;;;;5037331;28;45328;-75
2023/07/11 04:20:57;;;;;;;;;2.00;1.25;;;;;;;;5018702;28;45470;-74
2023/07/11 04:23:23;;;;;;;;;4.00;2.00;;;;;;;;5036772;28;45433;-73
2023/07/11 04:25:48;;;;;;;;;2.00;2.00;;;;;;;;5037183;28;45601;-73
2023/07/11 04:28:13;;;;;;;;;3.00;2.00;;;;;;;;5037044;28;45316;-73
2023/07/11 04:30:38;;;;;;;;;2.00;2.00;;;;;;;;5036605;28;47226;-73
2023/07/11 04:33:03;;;;;;;;;5.00;3.25;;;;;;;;5036738;28;45394;-74
2023/07/11 04:35:29;;;;;;;;;2.50;2.50;;;;;;;;5035486;28;45373;-73
2023/07/11 04:37:55;;;;;;;;;2.75;2.75;;;;;;;;5036594;28;45471;-73
2023/07/11 04:40:20;;;;;;;;;3.00;3.00;;;;;;;;5036651;28;46155;-73
2023/07/11 04:42:45;;;;;;;;;3.50;3.50;;;;;;;;5035324;28;45443;-73
2023/07/11 04:45:10;;;;;;;;;5.00;5.00;;;;;;;;5035682;28;45480;-73
2023/07/11 04:47:36;;;;;;;;;4.75;4.00;;;;;;;;5036673;28;45363;-73
2023/07/11 04:50:02;;;;;;;;;4.00;4.00;;;;;;;;5036460;28;47101;-73
2023/07/11 04:52:27;;;;;;;;;4.00;4.00;;;;;;;;5035278;28;45393;-74
2023/07/11 04:54:52;;;;;;;;;4.00;4.00;;;;;;;;5036719;28;45368;-73
2023/07/11 04:57:17;;;;;;;;;5.25;4.25;;;;;;;;5036500;28;45331;-73
2023/07/11 04:59:43;;;;;;;;;3.75;2.25;;;;;;;;5036447;28;46731;-74
2023/07/11 05:02:08;;;;;;;;;3.75;3.75;;;;;;;;5036358;28;45337;-74
2023/07/11 05:04:33;;;;;;;;;2.50;2.50;;;;;;;;5036425;28;45351;-74
2023/07/11 05:07:00;;;;;;;;;3.25;3.25;;;;;;;;5035132;28;45420;-73
2023/07/11 05:09:26;;;;;;;;;3.75;2.25;;;;;;;;5036050;28;45359;-74
2023/07/11 05:11:52;;;;;;;;;2.25;2.25;;;;;;;;5036064;28;45328;-73
2023/07/11 05:14:17;;;;;;;;;2.00;2.00;;;;;;;;5036348;28;45320;-74
2023/07/11 05:16:42;;;;;;;;;3.00;2.00;;;;;;;;5036520;28;45360;-74
2023/07/11 05:19:07;;;;;;;;;2.25;2.25;;;;;;;;5036257;28;45422;-73
2023/07/11 05:21:32;;;;;;;;;2.25;2.25;;;;;;;;5035716;28;45322;-73
2023/07/11 05:23:58;;;;;;;;;2.00;1.50;;;;;;;;5034932;28;45249;-72
2023/07/11 05:26:23;;;;;;;;;1.50;1.50;;;;;;;;5036271;28;45353;-74
2023/07/11 05:28:48;;;;;;;;;1.75;1.75;;;;;;;;5034510;28;46152;-74
2023/07/11 05:31:14;;;;;;;;;4.00;3.00;;;;;;;;5035852;28;45232;-74
2023/07/11 05:33:39;;;;;;;;;2.00;2.00;;;;;;;;5035886;28;45443;-74
2023/07/11 05:36:31;;;;;;;;;2.00;2.00;;;;;;;;5035976;28;45445;-73
2023/07/11 05:38:57;;;;;;;;;3.00;2.00;;;;;;;;5034406;28;48104;-73
2023/07/11 05:41:23;;;;;;;;;2.00;1.75;;;;;;;;5034966;28;45341;-73
2023/07/11 05:43:48;;;;;;;;;3.00;3.00;;;;;;;;5035826;28;45371;-73
2023/07/11 05:46:13;;;;;;;;;5.00;2.00;;;;;;;;5034642;28;45503;-74
2023/07/11 05:48:39;;;;;;;;;1.00;1.00;;;;;;;;5035772;28;45431;-74
2023/07/11 05:51:05;;;;;;;;;1.75;1.75;;;;;;;;5035401;28;45345;-74
2023/07/11 05:53:30;;;;;;;;;2.00;2.00;;;;;;;;5035463;28;45398;-74
2023/07/11 05:55:57;;;;;;;;;3.00;3.00;;;;;;;;5034130;28;45435;-73
2023/07/11 05:58:22;;;;;;;;;2.00;2.00;;;;;;;;5035639;28;46068;-74
2023/07/11 06:00:47;;;;;;;;;3.00;2.00;;;;;;;;5017766;28;45400;-73
2023/07/11 06:03:12;;;;;;;;;2.00;2.00;;;;;;;;5035524;28;45248;-73
2023/07/11 06:05:38;;;;;;;;;2.00;1.00;;;;;;;;5035498;28;45320;-73
2023/07/11 06:08:03;;;;;;;;;3.75;1.00;;;;;;;;5035232;28;46452;-73
2023/07/11 06:10:28;;;;;;;;;4.25;2.00;;;;;;;;5034172;28;45468;-73
2023/07/11 06:12:53;;;;;;;;;2.50;1.00;;;;;;;;5035413;28;45359;-74
2023/07/11 06:15:19;;;;;;;;;1.25;1.25;;;;;;;;5035665;28;45219;-73
2023/07/11 06:17:44;;;;;;;;;3.00;2.00;;;;;;;;5035463;28;45385;-74
2023/07/11 06:20:10;;;;;;;;;2.00;2.00;;;;;;;;5035102;28;45392;-73
2023/07/11 06:22:36;;;;;;;;;3.75;2.00;;;;;;;;5035293;28;45324;-73
2023/07/11 06:25:02;;;;;;;;;1.25;1.25;;;;;;;;5035268;28;45327;-73
2023/07/11 06:27:27;;;;;;;;;5.00;2.00;;;;;;;;5034723;28;46115;-73
2023/07/11 06:29:53;;;;;;;;;2.25;2.25;;;;;;;;5035117;28;45260;-73
2023/07/11 06:32:18;;;;;;;;;1.00;1.00;;;;;;;;5035425;28;45315;-72
2023/07/11 06:34:43;;;;;;;;;2.00;1.50;;;;;;;;5033717;28;45458;-72
2023/07/11 06:37:08;;;;;;;;;2.50;1.25;;;;;;;;5035043;28;46045;-72
2023/07/11 06:39:33;;;;;;;;;3.00;2.00;;;;;;;;5035261;28;45298;-72
2023/07/11 06:41:59;;;;;;;;;3.25;2.00;;;;;;;;5035251;28;45360;-72
2023/07/11 06:44:24;;;;;;;;;0.75;0.75;;;;;;;;5035357;28;45166;-73
2023/07/11 06:46:49;;;;;;;;;3.00;1.50;;;;;;;;5034933;28;46120;-74
2023/07/11 06:49:14;;;;;;;;;2.00;1.00;;;;;;;;5034991;28;45190;-71
2023/07/11 06:51:39;;;;;;;;;2.00;1.25;;;;;;;;5036150;28;45449;-72
2023/07/11 06:54:05;;;;;;;;;1.25;1.25;;;;;;;;5040176;28;45399;-72
2023/07/11 06:56:32;;;;;;;;;1.50;1.50;;;;;;;;5039463;28;45363;-74
2023/07/11 06:58:58;;;;;;;;;2.00;2.00;;;;;;;;5039474;28;45458;-73
2023/07/11 07:01:23;;;;;;;;;2.00;1.00;;;;;;;;5039799;28;45390;-73
2023/07/11 07:03:49;;;;;;;;;2.75;2.00;;;;;;;;5038644;28;45410;-73
2023/07/11 07:06:16;;;;;;;;;3.25;3.25;;;;;;;;5038396;28;47123;-72
2023/07/11 07:08:41;;;;;;;;;2.00;2.00;;;;;;;;5038036;28;45343;-72
2023/07/11 07:11:06;;;;;;;;;2.00;1.25;;;;;;;;5038305;28;45350;-73
2023/07/11 07:13:32;;;;;;;;;1.00;0.50;;;;;;;;5038160;28;45410;-72
2023/07/11 07:15:58;;;;;;;;;2.00;2.00;;;;;;;;5037665;28;46926;-72
2023/07/11 07:18:24;;;;;;;;;1.00;1.00;;;;;;;;5038185;28;45485;-73
2023/07/11 07:20:50;;;;;;;;;1.00;1.00;;;;;;;;5038043;28;45480;-73
2023/07/11 07:23:15;;;;;;;;;2.00;2.00;;;;;;;;5037701;28;45491;-72
2023/07/11 07:25:41;;;;;;;;;1.50;1.50;;;;;;;;5038134;28;45304;-72
2023/07/11 07:28:07;;;;;;;;;1.25;1.25;;;;;;;;5037956;28;45292;-72
2023/07/11 07:30:34;;;;;;;;;5.00;2.00;;;;;;;;5038093;28;45406;-72
2023/07/11 07:33:00;;;;;;;;;2.00;2.00;;;;;;;;5037636;28;45375;-73
2023/07/11 07:35:25;;;;;;;;;2.00;2.00;;;;;;;;5037698;28;45444;-73
2023/07/11 07:37:50;;;;;;;;;1.00;1.00;;;;;;;;5037723;28;45418;-72
2023/07/11 07:40:16;;;;;;;;;1.50;1.50;;;;;;;;5037981;28;45349;-73
2023/07/11 07:42:41;;;;;;;;;1.25;1.25;;;;;;;;5037906;28;45524;-72
2023/07/11 07:45:07;;;;;;;;;0.00;0.00;;;;;;;;5037309;28;46424;-73
2023/07/11 07:47:35;;;;;;;;;0.25;0.25;;;;;;;;5036980;28;45332;-73
2023/07/11 07:50:00;;;;;;;;;0.00;0.00;;;;;;;;5037566;28;45422;-74
2023/07/11 07:52:25;;;;;;;;;0.00;0.00;;;;;;;;5037490;28;45368;-74
2023/07/11 07:54:50;;;;;;;;;1.75;1.50;;;;;;;;5036206;28;48423;-74
2023/07/11 07:57:15;;;;;;;;;2.00;2.00;;;;;;;;5037259;28;45339;-74
2023/07/11 07:59:40;;;;;;;;;2.00;2.00;;;;;;;;5037544;28;45386;-74
2023/07/11 08:02:08;;;;;;;;;2.00;1.00;;;;;;;;5037131;28;45382;-74
2023/07/11 08:04:33;;;;;;;;;3.00;3.00;;;;;;;;5036471;28;46265;-74
2023/07/11 08:06:58;;;;;;;;;2.25;1.00;;;;;;;;5037322;28;45360;-74
2023/07/11 08:09:25;;;;;;;;;4.00;1.00;;;;;;;;5037417;28;45343;-74
2023/07/11 08:11:50;;;;;;;;;1.25;1.25;;;;;;;;5037186;28;45452;-73
2023/07/11 08:14:15;;;;;;;;;1.00;1.00;;;;;;;;5035580;28;46256;-73
2023/07/11 08:16:41;;;;;;;;;2.75;2.00;;;;;;;;5035694;28;45429;-73
2023/07/11 08:19:06;;;;;;;;;1.00;1.00;;;;;;;;5037452;28;45367;-73
2023/07/11 08:21:31;;;;;;;;;1.00;1.00;;;;;;;;5037050;28;45313;-73
2023/07/11 08:23:57;;;;;;;;;2.00;1.50;;;;;;;;5036891;28;45384;-73
2023/07/11 08:26:22;;;;;;;;;1.75;1.50;;;;;;;;5037200;28;45384;-73
2023/07/11 08:28:48;;;;;;;;;1.25;1.00;;;;;;;;5037151;28;45400;-73
2023/07/11 08:31:14;;;;;;;;;1.50;1.50;;;;;;;;5035374;28;45362;-73
2023/07/11 08:33:39;;;;;;;;;1.50;1.50;;;;;;;;5036997;28;46006;-73
2023/07/11 08:36:04;;;;;;;;;0.00;0.00;;;;;;;;5035184;28;45371;-73
2023/07/11 08:38:29;;;;;;;;;1.75;1.75;;;;;;;;5037076;28;45313;-73
2023/07/11 08:40:55;;;;;;;;;2.00;2.00;;;;;;;;5035628;28;45341;-73
2023/07/11 08:43:24;;;;;;;;;3.00;3.00;;;;;;;;5036705;28;45914;-74
2023/07/11 08:45:56;;;;;;;;;3.50;2.25;;;;;;;;5035299;28;45452;-73
2023/07/11 08:48:44;;;;;;;;;4.00;2.00;;;;;;;;5036715;28;45363;-73
2023/07/11 08:51:18;;;;;;;;;0.50;0.50;;;;;;;;5036498;28;45532;-73
2023/07/11 08:53:47;;;;;;;;;1.75;1.00;;;;;;;;5035135;28;46419;-73
2023/07/11 08:56:17;;;;;;;;;3.00;2.00;;;;;;;;5036508;28;45324;-73
2023/07/11 08:58:43;;;;;;;;;2.25;2.25;;;;;;;;5036041;28;45453;-73
2023/07/11 09:01:24;;;;;;;;;4.00;2.75;;;;;;;;5036627;28;45420;-72
2023/07/11 09:04:03;;;;;;;;;;;;;;;;;;;;;
2023/07/11 09:06:40;;;;;;;;;2.00;2.00;;;;;;;;5035179;28;73346;-73
2023/07/11 09:09:09;;;;;;;;;3.00;3.00;;;;;;;;5036512;28;45414;-74
2023/07/11 09:11:40;;;;;;;;;2.00;2.00;;;;;;;;5036187;28;45320;-73
2023/07/11 09:14:08;;;;;;;;;3.50;1.75;;;;;;;;5035643;28;47294;-73
2023/07/11 09:16:40;;;;;;;;;2.25;2.25;;;;;;;;5034956;28;45339;-73
2023/07/11 09:19:35;;;;;;;;;3.75;2.50;;;;;;;;5036412;28;46067;-74
2023/07/11 09:22:03;;;;;;;;;2.00;2.00;;;;;;;;5022871;28;45609;-73
2023/07/11 09:24:47;;;;;;;;;3.00;2.00;;;;;;;;5035739;28;45318;-73
2023/07/11 09:27:20;;;;;;;;;2.75;2.75;;;;;;;;5035768;28;45357;-74
2023/07/11 09:29:46;;;;;;;;;4.00;2.50;;;;;;;;5035843;28;45439;-71
2023/07/11 09:32:11;;;;;;;;;3.25;3.25;;;;;;;;5036050;28;45368;-74
2023/07/11 09:34:38;;;;;;;;;2.25;1.00;;;;;;;;5035736;28;47319;-73
2023/07/11 09:37:19;;;;;;;;;2.25;2.25;;;;;;;;5034503;28;46232;-73
2023/07/11 09:39:52;;;;;;;;;2.50;2.50;;;;;;;;5034580;28;45453;-74
2023/07/11 09:42:36;;;;;;;;;3.25;3.25;;;;;;;;5035736;28;45411;-73
2023/07/11 09:45:09;;;;;;;;;2.00;2.00;;;;;;;;5033962;28;45546;-73
2023/07/11 09:47:34;;;;;;;;;3.00;1.75;;;;;;;;5035447;28;45320;-73
2023/07/11 09:50:02;;;;;;;;;6.25;3.00;;;;;;;;5035763;28;45241;-73
2023/07/11 09:52:28;;;;;;;;;2.50;2.50;;;;;;;;5034653;28;45313;-73
2023/07/11 09:54:54;;;;;;;;;2.75;2.00;;;;;;;;5035194;28;46954;-71
2023/07/11 09:57:19;;;;;;;;;3.25;1.75;;;;;;;;5033586;28;45515;-73
2023/07/11 09:59:53;;;;;;;;;3.50;3.50;;;;;;;;5034247;28;45728;-73
2023/07/11 10:02:18;;;;;;;;;1.00;1.00;;;;;;;;5035179;28;45476;-73
2023/07/11 10:04:45;;;;;;;;;2.25;2.25;;;;;;;;5034695;28;45485;-72
2023/07/11 10:07:13;;;;;;;;;0.75;0.50;;;;;;;;5035617;28;45446;-73
2023/07/11 10:09:44;;;;;;;;;2.00;2.00;;;;;;;;5035429;28;45387;-73
2023/07/11 10:12:17;;;;;;;;;1.50;1.50;;;;;;;;5034991;28;45503;-73
2023/07/11 10:14:44;;;;;;;;;3.25;2.25;;;;;;;;5015352;28;47116;-74
2023/07/11 10:17:25;;;;;;;;;2.50;2.50;;;;;;;;5015609;28;45430;-73
2023/07/11 10:19:53;;;;;;;;;3.00;2.00;;;;;;;;5015390;28;45490;-73
2023/07/11 10:22:20;;;;;;;;;2.00;2.00;;;;;;;;5025204;28;45538;-73
2023/07/11 10:24:45;;;;;;;;;3.50;2.25;;;;;;;;5034724;28;46231;-73
2023/07/11 10:27:13;;;;;;;;;1.00;1.00;;;;;;;;5034521;28;45303;-73
2023/07/11 10:29:46;;;;;;;;;3.50;1.75;;;;;;;;5035325;28;45414;-73
2023/07/11 10:32:28;;;;;;;;;2.75;2.25;;;;;;;;5035189;28;45571;-73
2023/07/11 10:34:55;;;;;;;;;1.25;1.25;;;;;;;;5034773;28;46346;-73
2023/07/11 10:37:39;;;;;;;;;3.00;3.00;;;;;;;;5034876;28;45482;-73
2023/07/11 10:40:13;;;;;;;;;4.75;3.00;;;;;;;;5034519;28;45375;-74
2023/07/11 10:42:42;;;;;;;;;1.00;1.00;;;;;;;;5035136;28;45293;-74
2023/07/11 10:45:17;;;;;;;;;2.25;2.25;;;;;;;;5034936;28;46437;-74
2023/07/11 10:48:01;;;;;;;;;2.25;2.00;;;;;;;;5034982;28;45395;-73
2023/07/11 10:50:39;;;;;;;;;1.00;1.00;;;;;;;;5034822;28;45386;-74
2023/07/11 10:53:16;;;;;;;;;1.75;1.75;;;;;;;;5034974;28;45323;-73
2023/07/11 10:55:49;;;;;;;;;3.00;3.00;;;;;;;;5033298;28;47394;-72
2023/07/11 10:58:17;;;;;;;;;3.00;2.25;;;;;;;;5034884;28;45297;-72
2023/07/11 11:00:43;;;;;;;;;2.00;2.00;;;;;;;;5034967;28;45372;-72
2023/07/11 11:03:12;;;;;;;;;2.00;2.00;;;;;;;;5034467;28;45364;-72
2023/07/11 11:05:46;;;;;;;;;1.00;0.50;;;;;;;;5034811;28;45980;-72
2023/07/11 11:08:25;;;;;;;;;1.25;1.25;;;;;;;;5034702;28;45387;-72
2023/07/11 11:10:59;;;;;;;;;1.00;1.00;;;;;;;;5030862;28;45471;-72
2023/07/11 11:13:24;;;;;;;;;1.75;1.75;;;;;;;;5033347;28;45394;-71
2023/07/11 11:15:49;;;;;;;;;1.75;1.75;;;;;;;;5033105;28;46512;-71
2023/07/11 11:18:27;;;;;;;;;2.00;2.00;;;;;;;;5033170;28;45376;-77
2023/07/11 11:20:53;;;;;;;;;1.75;1.75;;;;;;;;5034050;28;45476;-72
2023/07/11 11:23:18;;;;;;;;;1.00;1.00;;;;;;;;5033715;28;45591;-73
2023/07/11 11:26:02;;;;;;;;;2.25;2.25;;;;;;;;5033740;28;45597;-73
2023/07/11 11:28:59;;;;;;;;;2.50;1.00;;;;;;;;5033779;28;45394;-73
2023/07/11 11:31:26;;;;;;;;;1.50;1.50;;;;;;;;4971361;28;45511;-73
2023/07/11 11:33:54;;;;;;;;;2.00;2.00;;;;;;;;4971125;28;45545;-72
2023/07/11 11:36:28;;;;;;;;;1.25;1.25;;;;;;;;4970509;28;45740;-72
2023/07/11 11:39:13;;;;;;;;;3.00;1.00;;;;;;;;4972236;28;45446;-72
2023/07/11 11:41:52;;;;;;;;;1.00;1.00;;;;;;;;4975684;28;45472;-73
2023/07/11 11:44:19;;;;;;;;;4.00;3.25;;;;;;;;4959459;28;45514;-73
2023/07/11 11:46:45;;;;;;;;;1.00;1.00;;;;;;;;4975040;28;47769;-73
2023/07/11 11:49:12;;;;;;;;;2.00;2.00;;;;;;;;4975651;28;45312;-72
2023/07/11 11:51:37;;;;;;;;;2.00;2.00;;;;;;;;4975350;28;45517;-73
2023/07/11 11:54:15;;;;;;;;;3.25;2.00;;;;;;;;4974831;28;45502;-73
2023/07/11 11:56:43;;;;;;;;;2.25;2.25;;;;;;;;4959331;28;48028;-73
2023/07/11 11:59:21;;;;;;;;;1.00;1.00;;;;;;;;4975223;28;45540;-73
2023/07/11 12:01:47;;;;;;;;;2.00;2.00;;;;;;;;4975107;28;45366;-73
2023/07/11 12:04:27;;;;;;;;;2.00;2.00;;;;;;;;4975235;28;45360;-73
2023/07/11 12:06:56;;;;;;;;;1.50;1.50;;;;;;;;5002316;28;45434;-73
2023/07/11 12:09:37;;;;;;;;;1.00;1.00;;;;;;;;5035333;28;45440;-73
2023/07/11 12:12:07;;;;;;;;;2.00;2.00;;;;;;;;5036778;28;45418;-72
2023/07/11 12:14:57;;;;;;;;;1.25;1.25;;;;;;;;5035392;28;45360;-72
2023/07/11 12:17:31;;;;;;;;;1.50;1.00;;;;;;;;5036959;28;45699;-71
2023/07/11 12:20:03;;;;;;;;;0.75;0.75;;;;;;;;5035601;28;45400;-72
2023/07/11 12:22:51;;;;;;;;;1.25;1.25;;;;;;;;5036613;28;45403;-73
2023/07/11 12:25:20;;;;;;;;;1.00;1.00;;;;;;;;5036008;28;45551;-73
2023/07/11 12:27:58;;;;;;;;;1.75;1.75;;;;;;;;5036631;28;45400;-71
2023/07/11 12:30:26;;;;;;;;;1.50;1.50;;;;;;;;5035197;28;45411;-71
2023/07/11 12:32:55;;;;;;;;;1.00;1.00;;;;;;;;5036450;28;45538;-71
2023/07/11 12:35:22;;;;;;;;;2.25;2.25;;;;;;;;5036447;28;45256;-72
2023/07/11 12:37:53;;;;;;;;;2.00;1.00;;;;;;;;5036243;28;45407;-72
2023/07/11 12:40:36;;;;;;;;;1.50;1.50;;;;;;;;5036164;28;45522;-72
2023/07/11 12:43:02;;;;;;;;;1.00;1.00;;;;;;;;5036811;28;45405;-72
2023/07/11 12:45:33;;;;;;;;;0.25;0.25;;;;;;;;5035068;28;45648;-72
2023/07/11 12:48:14;;;;;;;;;1.00;1.00;;;;;;;;5036086;28;45526;-72
2023/07/11 12:50:42;;;;;;;;;1.00;1.00;;;;;;;;5035912;28;45487;-73
2023/07/11 12:53:07;;;;;;;;;0.25;0.25;;;;;;;;5036105;28;45426;-71
2023/07/11 12:55:32;;;;;;;;;1.75;1.75;;;;;;;;5036510;28;45355;-72
2023/07/11 12:57:57;;;;;;;;;1.00;1.00;;;;;;;;5035597;28;45551;-71
2023/07/11 13:00:25;;;;;;;;;1.50;1.50;;;;;;;;5036445;28;45434;-72
2023/07/11 13:02:53;;;;;;;;;1.00;1.00;;;;;;;;5036170;28;45470;-73
2023/07/11 13:05:18;;;;;;;;;1.00;0.25;;;;;;;;5035835;28;45415;-73
2023/07/11 13:07:44;;;;;;;;;1.00;1.00;;;;;;;;5035699;28;45483;-73
2023/07/11 13:10:17;;;;;;;;;2.00;2.00;;;;;;;;5036475;28;45436;-72
2023/07/11 13:12:43;;;;;;;;;1.50;1.50;;;;;;;;5035971;28;45337;-72
2023/07/11 13:15:10;;;;;;;;;1.00;1.00;;;;;;;;5036043;28;45328;-72
2023/07/11 13:17:36;;;;;;;;;1.25;1.25;;;;;;;;5035767;28;45429;-72
2023/07/11 13:20:02;;;;;;;;;1.00;1.00;;;;;;;;5034753;28;45393;-73
2023/07/11 13:22:28;;;;;;;;;1.75;1.75;;;;;;;;5035965;28;45443;-73
2023/07/11 13:24:57;;;;;;;;;1.25;1.25;;;;;;;;5035375;28;45535;-73
2023/07/11 13:27:26;;;;;;;;;1.00;1.00;;;;;;;;5035641;28;45379;-72
2023/07/11 13:29:52;;;;;;;;;2.00;1.25;;;;;;;;5035353;28;45411;-73
2023/07/11 13:32:22;;;;;;;;;2.00;2.00;;;;;;;;5034904;28;45261;-73
2023/07/11 13:34:51;;;;;;;;;1.00;1.00;;;;;;;;5035106;28;45400;-72
2023/07/11 13:37:29;;;;;;;;;2.00;2.00;;;;;;;;5033469;28;45391;-73
2023/07/11 13:39:54;;;;;;;;;2.00;2.00;;;;;;;;5035423;28;45416;-72
2023/07/11 13:42:22;;;;;;;;;3.00;1.75;;;;;;;;5035796;28;45385;-73
2023/07/11 13:44:50;;;;;;;;;1.75;1.75;;;;;;;;5035048;28;45435;-73
2023/07/11 13:47:16;;;;;;;;;2.25;2.00;;;;;;;;5033689;28;47350;-72
2023/07/11 13:49:43;;;;;;;;;1.50;1.50;;;;;;;;5035154;28;45365;-72
2023/07/11 13:52:20;;;;;;;;;1.25;1.25;;;;;;;;5035466;28;45352;-72
2023/07/11 13:54:50;;;;;;;;;3.75;1.00;;;;;;;;5035403;28;45339;-73
2023/07/11 13:57:16;;;;;;;;;2.50;2.50;;;;;;;;5035362;28;46444;-72
2023/07/11 13:59:41;;;;;;;;;2.00;2.00;;;;;;;;5034939;28;45337;-72
2023/07/11 14:02:13;;;;;;;;;2.00;2.00;;;;;;;;5034427;28;45449;-72
2023/07/11 14:04:39;;;;;;;;;2.75;2.50;;;;;;;;5034756;28;45323;-73
2023/07/11 14:07:04;;;;;;;;;1.00;1.00;;;;;;;;5034807;28;45688;-72
2023/07/11 14:09:29;;;;;;;;;0.75;0.75;;;;;;;;5034957;28;45292;-73
2023/07/11 14:11:55;;;;;;;;;1.00;1.00;;;;;;;;5034049;28;45418;-73
2023/07/11 14:14:21;;;;;;;;;1.75;1.75;;;;;;;;5034832;28;45316;-72
2023/07/11 14:16:46;;;;;;;;;3.75;2.75;;;;;;;;5034725;28;47029;-72
2023/07/11 14:19:21;;;;;;;;;1.00;1.00;;;;;;;;5033348;28;46097;-72
2023/07/11 14:21:46;;;;;;;;;0.00;0.00;;;;;;;;5035198;28;45682;-72
2023/07/11 14:24:12;;;;;;;;;1.00;1.00;;;;;;;;5034528;28;45571;-72
2023/07/11 14:26:37;;;;;;;;;1.25;1.25;;;;;;;;5033305;28;45712;-72
2023/07/11 14:29:04;;;;;;;;;0.50;0.50;;;;;;;;5034946;28;45553;-72
2023/07/11 14:31:29;;;;;;;;;1.00;1.00;;;;;;;;5034849;28;45556;-72
2023/07/11 14:33:55;;;;;;;;;1.50;1.00;;;;;;;;5032882;28;45549;-72
2023/07/11 14:36:20;;;;;;;;;1.00;1.00;;;;;;;;5034569;28;46159;-72
2023/07/11 14:38:45;;;;;;;;;1.00;1.00;;;;;;;;5033591;28;45423;-72
2023/07/11 14:41:11;;;;;;;;;1.50;1.00;;;;;;;;5034920;28;45409;-71
2023/07/11 14:43:36;;;;;;;;;0.00;0.00;;;;;;;;5034841;28;45348;-72
2023/07/11 14:46:02;;;;;;;;;1.25;1.25;;;;;;;;5034158;28;47234;-72